Terminal Aerodrome Forecast
Issued by NWS

Home | Current Version | Previous Version | Graphics & Text | Print | Product List | Glossary On
Versions: 1 2 3 4 5 6 7 8 9 10 11 12 13 14 15 16 17 18 19 20
000
FTUS43 KDLH 261100
TAFHYR
TAF
KHYR 261120Z 2612/2712 21004KT P6SM BKN006 OVC015
      TEMPO 2612/2613 SCT006 OVC015
     FM261300 21005KT P6SM SCT009 OVC015
     FM261500 27005KT P6SM SCT025
     FM270100 24005KT P6SM VCSH BKN050=

USA.gov is the U.S. government's official web portal to all federal, state and local government web resources and services.